Bishop, Georgia
Current Conditions -  °F | °C
As of 3:51 PM on Friday 31 Oct 2014 (Local Time) from KAHN Reporting Station
Overcast Overcast  
Wind Chill: 64°   Ceiling: 8000
Heat Index: 64°   Visibility: 10mi
Dew Point: 39°   Wind: 10mph
Humidity: 40%   Direction: 280°W
Pressure: 29.82"   Gusts: 17mph
Location:  33.82°N, 83.44°W
Report Text: KAHN 311951Z 28009G15KT 10SM SCT060 BKN080 OVC100 18/04 A2982 RMK AO2 SLP100 T01780039
Loading
Personal Weather Stations






























Interactive Weather Map
Tropical Storm Tracking
New forecast layout! Learn more

10-Day Weather Forecast

Advertisements
Track Severe Weather on mobile